Time;durP1;ratioP1;P1;durP2;ratioP2;P2;SDS_P1;SDS_P2;PMS_P1;PMS_P2;Temp;Humidity;BMP_temperature;BMP_pressure;BME280_temperature;BME280_humidity;BME280_pressure;Samples;Min_cycle;Max_cycle;Signal;HPM_P1;HPM_P2
2022/03/18 00:05:31;;;;;;;10.63;7.47;;;;;;;2.30;64.50;102440.56;18366585;32;20104;-66
2022/03/18 00:15:36;;;;;;;6.40;2.70;;;;;;;2.05;66.05;102447.56;18366439;32;20343;-66
2022/03/18 00:25:39;;;;;;;12.32;5.80;;;;;;;2.24;64.99;102448.78;18364780;32;20101;-67
2022/03/18 00:35:44;;;;;;;7.43;5.37;;;;;;;2.31;64.11;102458.72;18365978;32;20117;-66
2022/03/18 00:45:47;;;;;;;16.62;4.97;;;;;;;2.37;63.38;102468.53;18364462;32;20104;-66
2022/03/18 00:55:51;;;;;;;16.48;7.00;;;;;;;1.89;66.12;102471.44;18363978;32;20177;-66
2022/03/18 01:05:55;;;;;;;8.07;5.07;;;;;;;1.80;66.31;102476.88;18363406;32;20353;-64
2022/03/18 01:15:59;;;;;;;7.95;6.20;;;;;;;2.01;65.38;102478.19;18362864;32;20370;-64
2022/03/18 01:26:02;;;;;;;9.30;5.70;;;;;;;2.06;65.55;102480.28;18362196;32;20402;-64
2022/03/18 01:36:07;;;;;;;7.45;5.80;;;;;;;1.87;65.16;102485.00;18369350;32;20101;-66
2022/03/18 01:46:10;;;;;;;7.97;4.20;;;;;;;1.82;64.11;102494.13;18371197;32;20111;-64
2022/03/18 01:56:15;;;;;;;8.65;6.37;;;;;;;1.19;66.43;102507.03;18370965;32;20109;-64
2022/03/18 02:06:18;;;;;;;7.15;3.70;;;;;;;1.19;67.01;102515.63;18370504;32;20401;-64
2022/03/18 02:16:23;;;;;;;14.17;4.60;;;;;;;1.37;67.01;102521.13;18371577;32;20188;-63
2022/03/18 02:26:28;;;;;;;9.10;6.40;;;;;;;1.40;67.01;102525.63;18371138;32;20437;-64
2022/03/18 02:36:31;;;;;;;3.33;3.03;;;;;;;1.60;65.70;102546.69;18369917;32;20382;-64
2022/03/18 02:46:36;;;;;;;6.83;3.87;;;;;;;1.25;67.72;102548.59;18362887;32;195519;-64
2022/03/18 02:56:39;;;;;;;7.83;3.73;;;;;;;1.02;69.06;102562.41;18369106;32;20097;-64
2022/03/18 03:17:05;;;;;;;4.70;3.37;;;;;;;1.14;67.86;102583.88;18368571;32;20107;-63
2022/03/18 03:27:10;;;;;;;9.70;6.37;;;;;;;1.09;67.85;102598.06;18369204;32;20109;-64
2022/03/18 03:37:14;;;;;;;6.80;2.63;;;;;;;1.16;67.39;102601.97;18368032;32;20112;-63
2022/03/18 03:47:18;;;;;;;7.23;4.50;;;;;;;1.41;66.50;102616.63;18367614;32;20108;-63
2022/03/18 03:57:22;;;;;;;9.17;3.60;;;;;;;1.22;67.61;102631.59;18367005;32;20133;-64
2022/03/18 04:07:27;;;;;;;5.18;3.80;;;;;;;1.14;67.92;102640.47;18366576;32;20105;-64
2022/03/18 04:17:37;;;;;;;4.83;2.83;;;;;;;1.50;66.21;102646.47;18366564;32;20504;-64
2022/03/18 04:27:42;;;;;;;3.37;2.53;;;;;;;1.08;67.33;102669.19;18365853;32;20104;-63
2022/03/18 04:37:45;;;;;;;4.67;3.60;;;;;;;1.56;64.72;102673.44;18365785;32;20105;-64
2022/03/18 04:47:50;;;;;;;3.93;3.07;;;;;;;1.32;65.40;102678.59;18364738;32;20097;-64
2022/03/18 04:57:53;;;;;;;3.47;2.60;;;;;;;1.27;65.49;102705.69;18364091;32;20180;-64
2022/03/18 05:07:58;;;;;;;2.73;1.73;;;;;;;1.26;65.94;102717.66;18367278;32;20089;-64
2022/03/18 05:18:01;;;;;;;9.00;4.27;;;;;;;1.37;65.07;102736.47;18375292;32;20147;-64
2022/03/18 05:28:06;;;;;;;6.20;3.50;;;;;;;1.32;68.31;102742.94;18371797;32;20097;-64
2022/03/18 05:38:09;;;;;;;7.47;3.47;;;;;;;1.47;61.87;102754.38;18371562;32;20093;-64
2022/03/18 05:48:13;;;;;;;4.30;3.17;;;;;;;3.14;58.18;102761.56;18370905;32;20123;-64
2022/03/18 05:58:17;;;;;;;3.58;1.75;;;;;;;3.48;47.29;102757.72;18370858;32;20109;-64
2022/03/18 06:18:57;;;;;;;3.30;1.95;;;;;;;3.67;42.59;102785.63;18105891;32;20472;-66
2022/03/18 06:29:01;;;;;;;1.67;1.58;;;;;;;3.91;40.83;102795.75;18107789;32;20139;-68
2022/03/18 06:39:05;;;;;;;3.70;2.12;;;;;;;3.42;40.52;102815.03;18106254;32;20178;-67
2022/03/18 06:49:10;;;;;;;1.33;1.17;;;;;;;4.25;39.33;102818.56;18317679;32;20097;-67
2022/03/18 06:59:14;;;;;;;3.25;1.55;;;;;;;4.91;39.03;102830.28;18368582;32;20441;-67
2022/03/18 07:09:18;;;;;;;2.15;1.67;;;;;;;5.91;36.27;102832.63;18376827;32;20143;-66
2022/03/18 07:19:21;;;;;;;1.50;1.40;;;;;;;6.15;35.41;102840.00;18383411;32;20136;-67
2022/03/18 07:29:26;;;;;;;3.50;1.80;;;;;;;6.43;34.68;102830.25;18366592;32;20096;-67
2022/03/18 07:39:30;;;;;;;2.17;1.77;;;;;;;6.09;35.62;102850.06;18374547;32;20093;-67
2022/03/18 07:49:34;;;;;;;7.78;2.58;;;;;;;6.62;33.64;102879.75;18379140;32;20089;-67
2022/03/18 07:59:37;;;;;;;2.62;1.52;;;;;;;7.25;33.24;102870.00;18364602;32;20084;-67
2022/03/18 08:09:42;;;;;;;1.75;1.37;;;;;;;6.50;33.34;102882.56;18401079;32;20096;-68
2022/03/18 08:19:45;;;;;;;4.80;1.98;;;;;;;6.68;32.72;102886.06;18429351;32;20116;-67
2022/03/18 08:29:50;;;;;;;5.87;1.80;;;;;;;8.03;32.82;102903.31;18404118;32;20112;-67
2022/03/18 08:39:53;;;;;;;2.53;1.83;;;;;;;8.40;31.50;102907.69;18366336;32;20133;-68
2022/03/18 08:49:57;;;;;;;5.72;2.30;;;;;;;9.02;31.59;102907.94;18372756;32;20114;-67
2022/03/18 09:00:01;;;;;;;4.78;2.00;;;;;;;9.19;30.84;102912.09;18391340;32;20158;-67
2022/03/18 09:10:12;;;;;;;3.60;1.95;;;;;;;9.20;31.75;102920.00;18403246;32;20114;-67
2022/03/18 09:20:15;;;;;;;4.40;2.33;;;;;;;9.40;30.61;102922.59;18415126;32;20373;-67
2022/03/18 09:30:20;;;;;;;3.40;1.73;;;;;;;9.80;29.79;102933.81;18403824;32;20111;-68
2022/03/18 09:40:23;;;;;;;6.45;2.17;;;;;;;10.04;30.54;102926.09;18371954;32;20108;-67
2022/03/18 09:50:48;;;;;;;5.05;2.55;;;;;;;9.93;30.91;102935.22;18370958;32;20097;-67
2022/03/18 10:00:51;;;;;;;4.65;2.45;;;;;;;10.17;29.83;102939.66;18370233;32;20105;-67
2022/03/18 10:10:56;;;;;;;4.57;2.45;;;;;;;10.12;29.23;102937.75;18387653;32;20178;-67
2022/03/18 10:21:09;;;;;;;5.53;2.53;;;;;;;10.11;30.25;102942.91;18393051;32;20092;-68
2022/03/18 10:31:16;;;;;;;6.43;2.12;;;;;;;10.87;28.93;102942.37;18404236;32;20115;-67
2022/03/18 10:41:24;;;;;;;6.78;2.60;;;;;;;11.31;28.37;102943.09;18400142;32;20481;-68
2022/03/18 10:51:29;;;;;;;3.83;1.90;;;;;;;12.44;26.73;102939.84;18394836;32;20389;-68
2022/03/18 11:01:32;;;;;;;5.32;2.95;;;;;;;12.34;26.71;102944.81;18397112;32;20199;-67
2022/03/18 11:11:39;;;;;;;5.95;3.00;;;;;;;12.46;26.66;102941.66;18397055;32;20430;-67
2022/03/18 11:21:43;;;;;;;6.87;2.95;;;;;;;12.75;25.91;102931.16;18387392;32;20128;-67
2022/03/18 11:32:20;;;;;;;7.53;3.45;;;;;;;12.59;26.37;102921.94;18397398;32;20101;-67
2022/03/18 11:42:24;;;;;;;5.32;2.40;;;;;;;12.57;26.72;102901.81;18396006;32;20116;-68
2022/03/18 11:52:28;;;;;;;5.22;2.85;;;;;;;13.31;27.17;102896.00;18413130;32;20141;-68
2022/03/18 12:02:33;;;;;;;10.38;3.28;;;;;;;13.44;25.77;102894.59;18424774;32;20378;-67
2022/03/18 12:12:40;;;;;;;8.13;2.97;;;;;;;13.18;26.17;102879.06;18382329;32;20195;-67
2022/03/18 12:22:44;;;;;;;5.25;2.60;;;;;;;13.20;26.42;102859.84;18371466;32;20119;-68
2022/03/18 12:32:51;;;;;;;7.87;3.58;;;;;;;11.74;28.39;102856.47;18363946;32;20120;-67
2022/03/18 12:42:56;;;;;;;5.80;2.70;;;;;;;12.50;28.04;102850.94;18363330;32;20093;-68
2022/03/18 12:53:02;;;;;;;7.40;3.65;;;;;;;11.97;29.16;102851.06;18390602;32;20101;-67
2022/03/18 13:03:06;;;;;;;6.30;3.42;;;;;;;13.12;28.63;102833.41;18384185;32;20158;-67
2022/03/18 13:13:13;;;;;;;7.65;3.72;;;;;;;12.99;29.96;102826.94;18384974;32;20112;-68
2022/03/18 13:23:19;;;;;;;11.50;3.90;;;;;;;12.34;31.24;102816.47;18393123;32;20120;-65
2022/03/18 13:33:23;;;;;;;9.23;3.85;;;;;;;12.71;31.88;102802.59;18399016;32;20092;-66
2022/03/18 13:43:28;;;;;;;9.45;2.90;;;;;;;12.62;31.19;102798.00;18370073;32;20112;-65
2022/03/18 13:53:34;;;;;;;6.30;2.87;;;;;;;13.05;31.22;102793.03;18411589;32;20088;-65
2022/03/18 14:03:38;;;;;;;8.77;4.28;;;;;;;12.40;31.42;102789.56;18434650;32;20676;-65
2022/03/18 14:13:43;;;;;;;8.85;3.42;;;;;;;12.70;31.27;102786.00;18410666;32;20129;-65
2022/03/18 14:23:47;;;;;;;9.18;3.67;;;;;;;13.55;30.22;102783.78;18380552;32;20097;-66
2022/03/18 14:33:52;;;;;;;10.48;4.28;;;;;;;12.87;30.04;102785.59;18381645;32;20098;-68
2022/03/18 14:43:56;;;;;;;6.25;3.15;;;;;;;12.24;31.55;102777.75;18375916;32;20140;-64
2022/03/18 14:54:00;;;;;;;10.23;3.62;;;;;;;13.11;29.66;102764.34;18367841;32;20177;-64
2022/03/18 15:04:05;;;;;;;10.57;3.28;;;;;;;12.92;29.62;102765.59;18367702;32;20078;-65
2022/03/18 15:14:10;;;;;;;8.75;4.50;;;;;;;12.57;29.99;102760.31;18373766;32;20108;-65
2022/03/18 15:24:13;;;;;;;9.18;3.12;;;;;;;12.54;29.39;102768.97;18402604;32;20180;-65
2022/03/18 15:34:18;;;;;;;7.00;3.45;;;;;;;13.36;28.94;102764.06;18366974;32;20119;-64
2022/03/18 15:44:21;;;;;;;7.93;3.45;;;;;;;13.56;28.95;102764.56;18366260;32;20163;-64
2022/03/18 15:54:28;;;;;;;7.50;3.50;;;;;;;13.35;29.48;102763.16;18367639;32;20147;-64
2022/03/18 16:04:31;;;;;;;7.37;2.85;;;;;;;13.08;28.32;102766.00;18366378;32;20100;-64
2022/03/18 16:14:36;;;;;;;9.80;3.28;;;;;;;13.17;28.83;102756.63;18421912;32;20092;-64
2022/03/18 16:24:40;;;;;;;7.53;3.42;;;;;;;13.01;29.99;102763.22;18417144;32;20112;-64
2022/03/18 16:34:48;;;;;;;11.07;4.90;;;;;;;12.45;31.59;102766.09;18426711;32;20090;-64
2022/03/18 16:44:51;;;;;;;11.30;4.78;;;;;;;11.98;32.29;102767.34;18399530;32;20103;-64
2022/03/18 16:54:56;;;;;;;10.93;3.67;;;;;;;11.39;33.41;102778.63;18429513;32;20128;-66
2022/03/18 17:04:59;;;;;;;9.38;3.70;;;;;;;10.83;34.83;102780.25;18432442;32;20093;-64
2022/03/18 17:15:04;;;;;;;8.40;2.67;;;;;;;10.17;35.72;102793.50;18436039;32;20120;-66
2022/03/18 17:25:09;;;;;;;5.40;3.37;;;;;;;9.36;37.81;102800.75;18436008;32;20157;-64
2022/03/18 17:35:16;;;;;;;8.30;3.35;;;;;;;8.88;39.28;102815.25;18435750;32;20089;-64
2022/03/18 17:45:21;;;;;;;7.82;4.25;;;;;;;8.11;41.09;102836.03;18434768;32;20438;-64
2022/03/18 17:55:26;;;;;;;6.37;3.15;;;;;;;7.41;43.95;102835.31;18429768;32;20133;-66
2022/03/18 18:05:29;;;;;;;10.32;3.87;;;;;;;6.80;45.22;102851.28;18433920;32;20097;-63
2022/03/18 18:15:34;;;;;;;5.90;3.55;;;;;;;6.30;46.24;102859.84;18424392;32;20343;-64
2022/03/18 18:25:40;;;;;;;4.80;2.28;;;;;;;6.08;46.82;102861.25;18390308;32;20128;-64
2022/03/18 18:35:45;;;;;;;6.05;2.67;;;;;;;5.73;48.03;102883.41;18417910;32;20105;-64
2022/03/18 18:45:48;;;;;;;11.90;5.62;;;;;;;5.48;48.32;102881.97;18433625;32;20112;-64
2022/03/18 18:55:52;;;;;;;9.50;5.20;;;;;;;5.01;49.81;102876.63;18433169;32;20085;-63
2022/03/18 19:05:56;;;;;;;3.70;2.70;;;;;;;4.73;50.85;102877.53;18432938;32;20089;-63
2022/03/18 19:16:02;;;;;;;6.35;2.55;;;;;;;4.55;47.78;102882.47;18432773;32;20714;-63
2022/03/18 19:26:06;;;;;;;3.95;3.42;;;;;;;4.16;49.63;102887.78;18431823;32;20121;-63
2022/03/18 19:36:10;;;;;;;13.65;8.73;;;;;;;3.98;50.46;102903.00;18397001;32;20100;-64
2022/03/18 19:46:15;;;;;;;6.90;4.85;;;;;;;3.88;50.47;102905.00;18373336;32;20439;-63
2022/03/18 20:06:41;;;;;;;6.30;3.53;;;;;;;3.34;51.89;102916.91;18411548;32;20177;-63
2022/03/18 20:16:46;;;;;;;7.80;4.53;;;;;;;3.17;52.28;102915.72;18425797;32;20444;-63
2022/03/18 20:26:50;;;;;;;6.10;3.37;;;;;;;2.96;52.92;102916.03;18392429;32;20104;-64
2022/03/18 20:36:55;;;;;;;5.25;3.22;;;;;;;2.64;54.34;102914.69;18392267;32;20449;-64
2022/03/18 20:46:58;;;;;;;4.35;3.95;;;;;;;2.84;54.27;102913.50;18400578;32;20109;-65
2022/03/18 20:57:03;;;;;;;13.68;5.10;;;;;;;2.42;55.98;102905.44;18411611;32;20108;-64
2022/03/18 21:07:07;;;;;;;11.40;5.22;;;;;;;2.42;56.42;102914.81;18434485;32;20131;-64
2022/03/18 21:17:27;;;;;;;11.15;3.87;;;;;;;2.08;56.46;102890.09;18434110;32;20097;-64
2022/03/18 21:37:53;;;;;;;10.43;4.35;;;;;;;1.90;56.10;102918.00;18434800;32;20089;-63
2022/03/18 21:47:57;;;;;;;5.50;3.58;;;;;;;1.92;56.43;102906.09;18433370;32;20433;-63
2022/03/18 21:58:04;;;;;;;4.07;2.80;;;;;;;2.01;57.11;102913.59;18433529;32;20370;-66
2022/03/18 22:08:07;;;;;;;3.67;3.08;;;;;;;2.01;57.17;102914.50;18431739;32;20115;-64
2022/03/18 22:18:12;;;;;;;3.80;3.12;;;;;;;1.98;57.38;102923.69;18431894;32;20097;-64
2022/03/18 22:28:15;;;;;;;6.53;5.55;;;;;;;2.17;59.17;102923.34;18432329;32;20111;-64
2022/03/18 22:38:19;;;;;;;6.32;2.95;;;;;;;2.65;59.40;102921.63;18432424;32;20376;-65
2022/03/18 22:48:23;;;;;;;6.55;4.03;;;;;;;2.26;60.20;102929.19;18431932;32;20111;-64
2022/03/18 22:58:28;;;;;;;6.18;5.00;;;;;;;2.65;59.31;102916.47;18431313;32;20447;-65
2022/03/18 23:08:31;;;;;;;5.25;3.40;;;;;;;2.35;59.96;102922.09;18431113;32;20144;-64
2022/03/18 23:18:38;;;;;;;9.82;5.32;;;;;;;2.64;59.58;102918.13;18431083;32;20112;-64
2022/03/18 23:28:41;;;;;;;22.33;6.35;;;;;;;2.82;58.39;102912.50;18430528;32;20111;-64
2022/03/18 23:38:46;;;;;;;6.90;4.70;;;;;;;2.70;60.37;102917.66;18431335;32;20605;-65
2022/03/18 23:48:49;;;;;;;11.43;4.65;;;;;;;2.84;59.90;102912.59;18430014;32;20092;-64
2022/03/18 23:58:54;;;;;;;4.50;3.60;;;;;;;2.83;61.20;102909.13;18430083;32;20112;-64
